createdAt,value
2019-04-26T00:01:50.876Z,2.00
2019-04-26T00:04:23.289Z,2.00
2019-04-26T00:06:55.343Z,2.07
2019-04-26T00:09:35.707Z,2.10
2019-04-26T00:12:27.268Z,2.20
2019-04-26T00:15:34.547Z,2.30
2019-04-26T00:18:06.875Z,2.00
2019-04-26T00:20:38.854Z,1.90
2019-04-26T00:23:11.856Z,2.00
2019-04-26T00:25:44.318Z,1.90
2019-04-26T00:28:17.000Z,2.30
2019-04-26T00:30:48.993Z,2.40
2019-04-26T00:33:21.446Z,2.37
2019-04-26T00:35:53.551Z,2.30
2019-04-26T00:38:25.478Z,2.40
2019-04-26T00:40:57.950Z,2.07
2019-04-26T00:43:29.885Z,2.27
2019-04-26T00:46:03.316Z,2.20
2019-04-26T00:48:35.558Z,1.90
2019-04-26T00:51:08.265Z,1.90
2019-04-26T00:53:40.788Z,2.20
2019-04-26T00:56:14.513Z,2.13
2019-04-26T00:58:46.804Z,1.80
2019-04-26T01:01:20.762Z,2.00
2019-04-26T01:03:52.836Z,2.40
2019-04-26T01:06:27.770Z,2.20
2019-04-26T01:08:59.714Z,2.30
2019-04-26T01:11:31.692Z,2.10
2019-04-26T01:14:03.955Z,2.40
2019-04-26T01:16:36.009Z,2.20
2019-04-26T01:19:09.986Z,2.37
2019-04-26T01:21:47.579Z,2.23
2019-04-26T01:24:21.233Z,2.50
2019-04-26T01:26:55.016Z,2.50
2019-04-26T01:29:28.009Z,2.23
2019-04-26T01:32:07.524Z,2.40
2019-04-26T01:34:40.985Z,2.50
2019-04-26T01:37:13.151Z,2.00
2019-04-26T01:39:50.489Z,2.40
2019-04-26T01:42:42.064Z,2.43
2019-04-26T01:45:20.295Z,2.40
2019-04-26T01:47:55.367Z,2.90
2019-04-26T01:50:29.426Z,2.60
2019-04-26T01:53:02.686Z,2.73
2019-04-26T01:55:34.686Z,2.50
2019-04-26T01:58:06.896Z,2.30
2019-04-26T02:00:47.564Z,2.57
2019-04-26T02:03:23.916Z,2.50
2019-04-26T02:05:56.025Z,2.60
2019-04-26T02:08:28.286Z,2.23
2019-04-26T02:11:00.415Z,2.63
2019-04-26T02:13:33.099Z,2.63
2019-04-26T02:16:05.124Z,5.00
2019-04-26T02:18:37.156Z,5.13
2019-04-26T02:21:20.673Z,4.07
2019-04-26T02:24:12.230Z,3.67
2019-04-26T02:26:45.672Z,3.77
2019-04-26T02:29:21.020Z,3.73
2019-04-26T02:31:56.619Z,3.30
2019-04-26T02:34:31.168Z,3.43
2019-04-26T02:37:04.395Z,3.03
2019-04-26T02:39:38.298Z,3.43
2019-04-26T02:42:38.065Z,3.43
2019-04-26T02:45:53.790Z,3.47
2019-04-26T02:48:55.568Z,3.00
2019-04-26T02:51:34.146Z,2.83
2019-04-26T02:54:18.381Z,3.47
2019-04-26T02:56:52.137Z,3.30
2019-04-26T02:59:40.598Z,3.07
2019-04-26T03:02:23.450Z,2.90
2019-04-26T03:04:57.702Z,2.53
2019-04-26T03:07:59.598Z,3.03
2019-04-26T03:10:43.453Z,2.70
2019-04-26T03:13:26.735Z,2.80
2019-04-26T03:16:27.729Z,3.30
2019-04-26T03:19:23.151Z,3.20
2019-04-26T03:22:20.219Z,3.40
2019-04-26T03:25:20.233Z,3.60
2019-04-26T03:28:32.675Z,3.73
2019-04-26T03:31:46.001Z,3.83
2019-04-26T03:34:42.295Z,3.83
2019-04-26T03:37:40.499Z,3.57
2019-04-26T03:40:44.988Z,3.50
2019-04-26T03:43:47.085Z,3.10
2019-04-26T03:46:31.248Z,3.80
2019-04-26T03:49:54.596Z,3.23
2019-04-26T03:53:12.832Z,3.20
2019-04-26T03:56:24.587Z,3.80
2019-04-26T03:59:27.153Z,3.60
2019-04-26T04:02:10.740Z,3.50
2019-04-26T04:04:57.920Z,3.57
2019-04-26T04:07:39.178Z,3.47
2019-04-26T04:10:12.140Z,3.40
2019-04-26T04:13:38.276Z,3.70
2019-04-26T04:16:54.320Z,3.13
2019-04-26T04:20:21.261Z,3.37
2019-04-26T04:23:19.625Z,3.50
2019-04-26T04:25:52.822Z,3.57
2019-04-26T04:28:53.873Z,3.80
2019-04-26T04:31:30.851Z,3.60
2019-04-26T04:34:16.073Z,2.97
2019-04-26T04:36:51.374Z,3.63
2019-04-26T04:39:56.691Z,3.47
2019-04-26T04:42:43.548Z,3.77
2019-04-26T04:45:53.699Z,4.13
2019-04-26T04:48:43.316Z,3.80
2019-04-26T04:51:32.246Z,3.47
2019-04-26T04:54:17.294Z,3.70
2019-04-26T04:57:06.433Z,3.73
2019-04-26T05:00:45.056Z,3.50
2019-04-26T05:03:27.821Z,4.20
2019-04-26T05:06:18.611Z,3.50
2019-04-26T05:09:07.449Z,3.40
2019-04-26T05:11:48.315Z,3.77
2019-04-26T05:15:02.858Z,4.00
2019-04-26T05:18:07.530Z,3.33
2019-04-26T05:20:46.998Z,3.40
2019-04-26T05:24:13.975Z,3.23
2019-04-26T05:27:38.832Z,3.63
2019-04-26T05:31:16.259Z,3.50
2019-04-26T05:34:11.840Z,3.70
2019-04-26T05:36:53.131Z,3.47
2019-04-26T05:40:04.611Z,3.13
2019-04-26T05:43:28.757Z,3.10
2019-04-26T05:46:41.444Z,3.70
2019-04-26T05:49:59.975Z,3.47
2019-04-26T05:53:06.670Z,3.80
2019-04-26T05:56:29.256Z,3.80
2019-04-26T05:59:07.632Z,3.57
2019-04-26T06:02:27.422Z,3.60
2019-04-26T06:05:23.545Z,3.80
2019-04-26T06:08:55.330Z,3.50
2019-04-26T06:11:38.793Z,3.60
2019-04-26T06:14:50.506Z,3.10
2019-04-26T06:17:55.895Z,4.10
2019-04-26T06:21:09.408Z,3.47
2019-04-26T06:24:19.706Z,3.70
2019-04-26T06:27:13.690Z,3.50
2019-04-26T06:30:14.290Z,3.40
2019-04-26T06:33:04.763Z,3.50
2019-04-26T06:35:39.364Z,3.40
2019-04-26T06:38:55.708Z,3.40
2019-04-26T06:42:14.432Z,3.97
2019-04-26T06:45:17.202Z,3.63
2019-04-26T06:47:58.807Z,4.23
2019-04-26T06:50:38.288Z,4.30
2019-04-26T06:53:21.938Z,4.53
2019-04-26T06:56:07.797Z,4.03
2019-04-26T06:59:19.707Z,4.00
2019-04-26T07:02:08.221Z,4.00
2019-04-26T07:05:11.933Z,3.93
2019-04-26T07:08:18.093Z,4.60
2019-04-26T07:11:45.968Z,5.10
2019-04-26T07:14:41.188Z,5.83
2019-04-26T07:17:17.336Z,4.77
2019-04-26T07:20:22.359Z,5.07
2019-04-26T07:23:42.555Z,4.50
2019-04-26T07:26:38.798Z,3.70
2019-04-26T07:29:28.402Z,3.90
2019-04-26T07:32:39.835Z,4.33
2019-04-26T07:35:33.948Z,4.60
2019-04-26T07:39:10.380Z,4.83
2019-04-26T07:42:11.716Z,5.20
2019-04-26T07:45:32.548Z,5.40
2019-04-26T07:48:58.301Z,5.07
2019-04-26T07:52:15.744Z,5.20
2019-04-26T07:55:12.890Z,5.53
2019-04-26T07:58:21.698Z,5.27
2019-04-26T08:01:04.099Z,4.50
2019-04-26T08:03:49.019Z,4.37
2019-04-26T08:06:41.191Z,4.00
2019-04-26T08:09:25.604Z,3.33
2019-04-26T08:11:52.261Z,3.87
2019-04-26T08:14:50.693Z,3.77
2019-04-26T08:17:46.182Z,3.87
2019-04-26T08:20:40.168Z,3.53
2019-04-26T08:23:37.555Z,3.00
2019-04-26T08:25:51.941Z,3.20
2019-04-26T08:28:25.825Z,2.63
2019-04-26T08:30:59.239Z,2.53
2019-04-26T08:33:41.029Z,2.50
2019-04-26T08:36:12.699Z,2.77
2019-04-26T08:38:45.225Z,2.57
2019-04-26T08:41:18.806Z,2.30
2019-04-26T08:44:09.843Z,3.67
2019-04-26T08:47:02.441Z,3.03
2019-04-26T08:49:56.767Z,2.87
2019-04-26T08:52:31.181Z,2.90
2019-04-26T08:55:04.750Z,3.30
2019-04-26T08:57:39.593Z,3.03
2019-04-26T09:00:26.081Z,3.17
2019-04-26T09:03:11.614Z,2.90
2019-04-26T09:06:03.000Z,2.93
2019-04-26T09:08:39.355Z,3.00
2019-04-26T09:11:23.673Z,2.87
2019-04-26T09:13:49.899Z,2.70
2019-04-26T09:16:21.392Z,3.13
2019-04-26T09:18:57.280Z,2.83
2019-04-26T09:21:52.130Z,3.50
2019-04-26T09:24:38.428Z,3.47
2019-04-26T09:27:44.970Z,3.60
2019-04-26T09:30:33.635Z,2.93
2019-04-26T09:33:14.862Z,3.50
2019-04-26T09:35:46.892Z,2.93
2019-04-26T09:38:18.939Z,2.73
2019-04-26T09:40:52.569Z,2.60
2019-04-26T09:43:47.966Z,3.00
2019-04-26T09:46:39.516Z,2.77
2019-04-26T09:49:25.912Z,2.83
2019-04-26T09:51:57.970Z,2.27
2019-04-26T09:54:29.982Z,2.60
2019-04-26T09:57:02.122Z,2.63
2019-04-26T09:59:36.251Z,2.57
2019-04-26T10:02:09.118Z,3.00
2019-04-26T10:04:41.143Z,3.20
2019-04-26T10:07:13.101Z,2.97
2019-04-26T10:09:45.135Z,3.43
2019-04-26T10:12:26.989Z,3.70
2019-04-26T10:15:26.749Z,4.40
2019-04-26T10:17:58.696Z,3.47
2019-04-26T10:20:30.699Z,3.20
2019-04-26T10:23:02.826Z,4.00
2019-04-26T10:25:34.809Z,3.70
2019-04-26T10:28:06.837Z,3.97
2019-04-26T10:30:42.415Z,3.27
2019-04-26T10:33:12.820Z,3.23
2019-04-26T10:35:44.868Z,3.30
2019-04-26T10:38:19.391Z,3.03
2019-04-26T10:40:50.742Z,3.33
2019-04-26T10:43:22.761Z,2.97
2019-04-26T10:45:55.105Z,3.03
2019-04-26T10:48:27.143Z,3.07
2019-04-26T10:50:59.069Z,2.70
2019-04-26T10:53:50.489Z,3.00
2019-04-26T10:56:48.325Z,2.60
2019-04-26T10:59:32.801Z,2.47
2019-04-26T11:02:06.377Z,2.47
2019-04-26T11:04:41.464Z,2.30
2019-04-26T11:07:12.278Z,2.50
2019-04-26T11:09:44.243Z,2.20
2019-04-26T11:12:16.325Z,2.83
2019-04-26T11:14:48.368Z,2.90
2019-04-26T11:17:20.356Z,2.67
2019-04-26T11:19:52.398Z,3.40
2019-04-26T11:22:29.411Z,3.17
2019-04-26T11:24:58.562Z,3.13
2019-04-26T11:27:30.508Z,3.10
2019-04-26T11:30:12.924Z,2.77
2019-04-26T11:32:38.165Z,2.93
2019-04-26T11:35:10.429Z,2.80
2019-04-26T11:37:42.426Z,3.90
2019-04-26T11:40:15.680Z,4.67
2019-04-26T11:42:47.866Z,4.13
2019-04-26T11:45:19.864Z,3.70
2019-04-26T11:47:56.313Z,3.20
2019-04-26T11:50:25.785Z,3.23
2019-04-26T11:52:57.748Z,3.60
2019-04-26T11:55:31.416Z,3.03
2019-04-26T11:58:03.540Z,3.37
2019-04-26T12:00:41.101Z,3.30
2019-04-26T12:03:13.075Z,2.90
2019-04-26T12:06:04.915Z,2.73
2019-04-26T12:08:48.554Z,3.57
2019-04-26T12:11:26.230Z,2.70
2019-04-26T12:13:55.340Z,2.17
2019-04-26T12:16:28.455Z,2.50
2019-04-26T12:19:00.448Z,2.23
2019-04-26T12:21:34.154Z,2.40
2019-04-26T12:24:06.463Z,2.20
2019-04-26T12:26:43.063Z,2.63
2019-04-26T12:29:14.748Z,2.70
2019-04-26T12:31:46.357Z,3.00
2019-04-26T12:34:19.128Z,2.57
2019-04-26T12:36:51.249Z,2.43
2019-04-26T12:39:23.208Z,2.80
2019-04-26T12:41:55.221Z,3.13
2019-04-26T12:44:36.458Z,2.77
2019-04-26T12:47:14.626Z,2.90
2019-04-26T12:49:46.605Z,2.80
2019-04-26T12:52:21.548Z,3.30
2019-04-26T12:54:52.560Z,2.83
2019-04-26T12:57:24.606Z,2.30
2019-04-26T12:59:57.539Z,2.73
2019-04-26T13:02:30.740Z,3.27
2019-04-26T13:05:03.015Z,2.27
2019-04-26T13:07:35.109Z,1.93
2019-04-26T13:10:26.824Z,2.23
2019-04-26T13:13:24.290Z,2.30
2019-04-26T13:16:21.718Z,2.13
2019-04-26T13:18:52.897Z,2.40
2019-04-26T13:21:24.937Z,2.70
2019-04-26T13:24:00.181Z,4.10
2019-04-26T13:26:34.888Z,3.87
2019-04-26T13:29:04.854Z,2.90
2019-04-26T13:31:36.929Z,2.70
2019-04-26T13:34:08.953Z,2.90
2019-04-26T13:36:40.925Z,2.80
2019-04-26T13:39:13.558Z,3.23
2019-04-26T13:41:46.976Z,2.90
2019-04-26T13:44:39.354Z,2.60
2019-04-26T13:47:30.183Z,2.67
2019-04-26T13:50:11.200Z,2.70
2019-04-26T13:52:43.287Z,3.37
2019-04-26T13:55:15.342Z,2.67
2019-04-26T13:57:47.351Z,2.20
2019-04-26T14:00:23.139Z,4.40
2019-04-26T14:02:55.110Z,3.33
2019-04-26T14:05:27.168Z,3.27
2019-04-26T14:07:59.190Z,3.60
2019-04-26T14:10:31.210Z,2.97
2019-04-26T14:13:03.215Z,2.73
2019-04-26T14:15:35.313Z,3.17
2019-04-26T14:18:07.303Z,3.40
2019-04-26T14:20:39.327Z,3.77
2019-04-26T14:23:39.974Z,7.83
2019-04-26T14:26:18.862Z,5.60
2019-04-26T14:28:54.418Z,3.60
2019-04-26T14:31:24.744Z,3.10
2019-04-26T14:33:56.779Z,3.00
2019-04-26T14:36:28.792Z,2.80
2019-04-26T14:39:06.149Z,3.00
2019-04-26T14:41:34.769Z,2.23
2019-04-26T14:44:15.350Z,2.10
2019-04-26T14:46:48.671Z,1.70
2019-04-26T14:49:14.632Z,3.37
2019-04-26T14:51:46.990Z,5.57
2019-04-26T14:54:20.513Z,11.53
2019-04-26T14:56:52.687Z,8.10
2019-04-26T14:59:44.411Z,4.27
2019-04-26T15:02:35.363Z,1.97
2019-04-26T15:05:27.129Z,1.63
2019-04-26T15:07:59.242Z,2.30
2019-04-26T15:10:43.916Z,2.20
2019-04-26T15:13:17.336Z,3.23
2019-04-26T15:15:42.686Z,2.87
2019-04-26T15:18:15.894Z,3.00
2019-04-26T15:20:47.911Z,2.93
2019-04-26T15:23:23.861Z,3.50
2019-04-26T15:25:53.815Z,3.20
2019-04-26T15:28:25.840Z,2.63
2019-04-26T15:30:57.843Z,3.27
2019-04-26T15:33:29.875Z,4.40
2019-04-26T15:36:02.353Z,2.30
2019-04-26T15:38:41.537Z,2.03
2019-04-26T15:41:35.720Z,2.60
2019-04-26T15:44:28.241Z,2.70
2019-04-26T15:47:23.625Z,2.33
2019-04-26T15:50:05.566Z,2.23
2019-04-26T15:52:35.543Z,2.60
2019-04-26T15:55:07.851Z,2.20
2019-04-26T15:57:39.863Z,2.00
2019-04-26T16:00:12.561Z,1.70
2019-04-26T16:02:44.688Z,2.20
2019-04-26T16:05:16.895Z,2.00
2019-04-26T16:07:48.913Z,1.50
2019-04-26T16:10:25.538Z,1.93
2019-04-26T16:12:56.239Z,2.03
2019-04-26T16:15:28.388Z,1.80
2019-04-26T16:18:00.374Z,2.00
2019-04-26T16:20:37.548Z,1.80
2019-04-26T16:23:07.411Z,1.80
2019-04-26T16:25:39.584Z,1.43
2019-04-26T16:28:30.876Z,1.90
2019-04-26T16:31:14.727Z,1.90
2019-04-26T16:33:47.865Z,2.40
2019-04-26T16:36:19.861Z,2.27
2019-04-26T16:38:56.126Z,3.43
2019-04-26T16:41:27.329Z,2.73
2019-04-26T16:43:59.618Z,2.30
2019-04-26T16:46:33.266Z,2.30
2019-04-26T16:51:39.415Z,3.17
2019-04-26T16:54:20.914Z,3.10
2019-04-26T16:56:45.335Z,4.20
2019-04-26T16:59:22.687Z,4.40
2019-04-26T17:01:53.224Z,3.50
2019-04-26T17:04:31.979Z,3.00
2019-04-26T17:09:37.394Z,2.43
2019-04-26T17:09:41.878Z,4.90
2019-04-26T17:09:54.872Z,2.83
2019-04-26T17:12:10.659Z,3.00
2019-04-26T17:14:47.797Z,2.80
2019-04-26T17:17:16.062Z,3.07
2019-04-26T17:19:48.087Z,2.30
2019-04-26T17:22:44.559Z,2.67
2019-04-26T17:25:24.419Z,3.37
2019-04-26T17:27:56.007Z,3.50
2019-04-26T17:30:28.042Z,3.10
2019-04-26T17:33:00.005Z,2.87
2019-04-26T17:35:32.741Z,4.60
2019-04-26T17:38:05.167Z,6.70
2019-04-26T17:40:38.095Z,5.83
2019-04-26T17:43:11.437Z,8.00
2019-04-26T17:45:44.332Z,7.43
2019-04-26T17:48:16.338Z,7.33
2019-04-26T17:50:48.379Z,10.23
2019-04-26T17:53:30.776Z,7.50
2019-04-26T17:55:55.139Z,4.07
2019-04-26T17:58:33.607Z,4.07
2019-04-26T18:01:03.714Z,3.50
2019-04-26T18:03:35.415Z,5.70
2019-04-26T18:06:09.583Z,8.20
2019-04-26T18:08:51.204Z,6.17
2019-04-26T18:11:19.676Z,4.57
2019-04-26T18:13:51.119Z,5.03
2019-04-26T18:16:29.012Z,5.00
2019-04-26T18:19:15.616Z,5.27
2019-04-26T18:22:07.260Z,5.33
2019-04-26T18:24:39.242Z,5.00
2019-04-26T18:27:11.224Z,5.70
2019-04-26T18:29:43.700Z,5.00
2019-04-26T18:32:15.742Z,5.20
2019-04-26T18:34:47.794Z,5.23
2019-04-26T18:37:19.826Z,5.53
2019-04-26T18:39:53.369Z,6.17
2019-04-26T18:42:27.094Z,6.17
2019-04-26T18:44:59.142Z,6.00
2019-04-26T18:47:36.031Z,6.10
2019-04-26T18:50:08.410Z,5.77
2019-04-26T18:52:56.535Z,6.10
2019-04-26T18:55:30.191Z,6.03
2019-04-26T18:58:05.363Z,5.80
2019-04-26T19:00:38.050Z,6.37
2019-04-26T19:03:10.084Z,6.67
2019-04-26T19:05:43.151Z,6.33
2019-04-26T19:08:15.325Z,7.23
2019-04-26T19:10:58.311Z,7.33
2019-04-26T19:13:38.136Z,7.77
2019-04-26T19:16:28.089Z,13.57
2019-04-26T19:19:07.206Z,12.43
2019-04-26T19:21:52.848Z,8.87
2019-04-26T19:24:24.547Z,8.13
2019-04-26T19:26:56.673Z,7.40
2019-04-26T19:29:33.645Z,7.57
2019-04-26T19:32:04.361Z,8.50
2019-04-26T19:34:36.586Z,8.93
2019-04-26T19:37:08.669Z,7.90
2019-04-26T19:39:42.595Z,8.37
2019-04-26T19:42:14.627Z,10.40
2019-04-26T19:44:49.425Z,9.63
2019-04-26T19:47:39.491Z,8.77
2019-04-26T19:50:42.324Z,11.17
2019-04-26T19:53:34.773Z,8.90
2019-04-26T19:56:27.336Z,9.23
2019-04-26T19:58:57.640Z,8.77
2019-04-26T20:01:29.583Z,6.83
2019-04-26T20:04:02.449Z,7.30
2019-04-26T20:06:34.624Z,6.80
2019-04-26T20:09:07.044Z,7.17
2019-04-26T20:11:39.057Z,6.80
2019-04-26T20:14:12.394Z,7.00
2019-04-26T20:16:44.578Z,9.13
2019-04-26T20:19:18.004Z,7.97
2019-04-26T20:21:51.196Z,7.87
2019-04-26T20:24:24.093Z,11.07
2019-04-26T20:26:56.057Z,9.37
2019-04-26T20:29:28.060Z,8.53
2019-04-26T20:32:07.020Z,8.27
2019-04-26T20:34:41.286Z,9.13
2019-04-26T20:37:16.107Z,9.20
2019-04-26T20:39:47.255Z,8.60
2019-04-26T20:42:19.202Z,9.17
2019-04-26T20:44:53.627Z,7.57
2019-04-26T20:47:25.387Z,6.63
2019-04-26T20:50:01.287Z,7.03
2019-04-26T20:52:32.138Z,6.30
2019-04-26T20:55:04.415Z,5.87
2019-04-26T20:57:36.516Z,6.27
2019-04-26T21:00:08.725Z,7.20
2019-04-26T21:02:40.711Z,6.07
2019-04-26T21:05:14.662Z,7.13
2019-04-26T21:07:50.156Z,9.70
2019-04-26T21:10:25.049Z,7.83
2019-04-26T21:12:55.093Z,8.80
2019-04-26T21:15:27.239Z,8.47
2019-04-26T21:18:02.726Z,8.17
2019-04-26T21:20:36.501Z,8.87
2019-04-26T21:23:08.726Z,7.37
2019-04-26T21:25:50.257Z,8.00
2019-04-26T21:28:42.775Z,8.77
2019-04-26T21:31:26.878Z,9.03
2019-04-26T21:34:07.856Z,8.60
2019-04-26T21:36:57.944Z,9.37
2019-04-26T21:39:49.619Z,9.47
2019-04-26T21:42:25.509Z,10.17
2019-04-26T21:44:55.553Z,10.17
2019-04-26T21:47:31.828Z,9.47
2019-04-26T21:50:01.556Z,9.80
2019-04-26T21:52:34.333Z,10.10
2019-04-26T21:55:06.739Z,8.77
2019-04-26T21:57:38.801Z,9.30
2019-04-26T22:00:29.428Z,7.70
2019-04-26T22:03:01.449Z,7.70
2019-04-26T22:05:35.034Z,7.30
2019-04-26T22:08:07.437Z,8.00
2019-04-26T22:10:44.650Z,8.80
2019-04-26T22:13:23.661Z,8.57
2019-04-26T22:16:30.587Z,8.97
2019-04-26T22:19:10.205Z,8.87
2019-04-26T22:21:53.416Z,8.77
2019-04-26T22:24:36.265Z,9.47
2019-04-26T22:27:08.274Z,9.33
2019-04-26T22:29:40.268Z,9.07
2019-04-26T22:32:15.911Z,9.57
2019-04-26T22:34:46.425Z,8.77
2019-04-26T22:37:29.151Z,8.37
2019-04-26T22:39:54.230Z,9.30
2019-04-26T22:42:26.658Z,8.20
2019-04-26T22:45:21.048Z,8.83
2019-04-26T22:48:03.500Z,8.93
2019-04-26T22:50:35.546Z,9.10
2019-04-26T22:53:07.526Z,8.57
2019-04-26T22:55:39.513Z,8.30
2019-04-26T22:58:13.298Z,8.00
2019-04-26T23:00:45.915Z,8.87
2019-04-26T23:03:18.008Z,7.90
2019-04-26T23:05:50.067Z,7.23
2019-04-26T23:08:23.636Z,7.80
2019-04-26T23:10:57.657Z,7.50
2019-04-26T23:13:49.212Z,8.20
2019-04-26T23:16:40.358Z,7.90
2019-04-26T23:19:31.097Z,7.83
2019-04-26T23:22:04.131Z,9.03
2019-04-26T23:24:36.199Z,9.10
2019-04-26T23:27:08.326Z,8.93
2019-04-26T23:29:40.375Z,8.13
2019-04-26T23:32:18.571Z,8.70
2019-04-26T23:34:46.420Z,8.40
2019-04-26T23:37:19.306Z,8.70
2019-04-26T23:39:53.621Z,8.57
2019-04-26T23:42:25.813Z,9.10
2019-04-26T23:44:57.784Z,8.53
2019-04-26T23:47:31.945Z,8.43
2019-04-26T23:50:04.151Z,9.57
2019-04-26T23:52:36.133Z,16.33
2019-04-26T23:55:09.232Z,13.80
2019-04-26T23:57:43.362Z,12.30
